Weather reports worldwide

Advertisment
Cerezo De Arriba, Spain (8143): temperature & dewpoint: 06.12.2018 00:00:00 - 12.12.2018 00:00:00 (CET)Cerezo De Arriba, Spain (8143): wind speed & gusts: 06.12.2018 00:00:00 - 12.12.2018 00:00:00 (CET)Cerezo De Arriba, Spain (8143): wind direction: 06.12.2018 00:00:00 - 12.12.2018 00:00:00 (CET)Cerezo De Arriba, Spain (8143): visibility: 06.12.2018 00:00:00 - 12.12.2018 00:00:00 (CET)Cerezo De Arriba, Spain (8143): sunshine duration: 06.12.2018 00:00:00 - 12.12.2018 00:00:00 (CET)Cerezo De Arriba, Spain (8143): precipitation: 06.12.2018 00:00:00 - 12.12.2018 00:00:00 (CET)
Date & Time tt [°C] td [°C] ff [km/h] ff [kn] fx [km/h] fx [kn] dd vv [km] sd [min] rr [mm]
12.12.2018 00:00:00 4,3 -1,7 12 7 32 17 S 20 0 0,0
11.12.2018 23:00:00 3,2 -3,0 14 8 29 15 S 20 0 0,0
11.12.2018 22:00:00 3,6 -5,1 9 5 27 15 SSE 20 0 0,0
11.12.2018 21:00:00 3,9 -7,1 8 5 27 15 SE 20 0 0,0
11.12.2018 20:00:00 4,0 -7,8 11 6 26 14 SSE 20 0 0,0
11.12.2018 19:00:00 4,1 -9,9 13 7 27 14 SSW 20 0 -
11.12.2018 18:00:00 4,3 -8,6 14 8 27 15 SSW 20 0 0,0
11.12.2018 17:00:00 5,3 -5,7 9 5 23 12 WNW 20 0 0,0
11.12.2018 16:00:00 6,5 -1,7 7 4 23 12 SSE 20 41 0,0
11.12.2018 15:00:00 7,5 -0,7 5 3 18 10 E 20 60 0,0
11.12.2018 14:00:00 8,5 -5,1 8 5 24 13 N 20 60 0,0
11.12.2018 13:00:00 8,3 -4,8 8 4 22 12 NE 20 60 -
11.12.2018 12:00:00 7,5 -5,7 8 5 25 14 SSE 20 17 0,0
11.12.2018 11:00:00 6,2 -4,5 10 5 27 15 SE 20 0 0,0
11.12.2018 10:00:00 6,0 -3,0 12 6 22 12 S 20 0 0,0
11.12.2018 09:00:00 4,8 -3,9 11 6 16 9 SSW 20 0 0,0
11.12.2018 08:00:00 5,7 -6,4 10 5 19 11 SSW 20 0 0,0
11.12.2018 07:00:00 4,4 -5,1 14 7 18 10 SSW 20 0 -
11.12.2018 06:00:00 4,5 -3,3 12 7 19 10 SSW 20 0 0,0
11.12.2018 05:00:00 5,4 -2,7 11 6 20 11 SSW 20 0 0,0
11.12.2018 04:00:00 5,8 -2,0 10 5 22 12 SSW 20 0 0,0
11.12.2018 03:00:00 5,8 -2,0 11 6 18 10 SSW 20 0 0,0
11.12.2018 02:00:00 5,3 -2,0 9 5 14 8 SW 20 0 0,0
11.12.2018 01:00:00 5,1 -2,0 7 4 13 7 SW 20 0 -
11.12.2018 00:00:00 5,2 -2,2 8 4 11 6 SW 20 0 0,0
10.12.2018 23:00:00 5,1 -1,7 6 3 10 6 SW 20 0 0,0
10.12.2018 22:00:00 5,2 -2,0 2 1 8 5 S 20 0 0,0
10.12.2018 21:00:00 5,0 -2,0 3 2 14 8 S 20 0 0,0
10.12.2018 20:00:00 5,3 -2,0 6 4 13 7 S 20 0 0,0
10.12.2018 19:00:00 5,4 -1,7 9 5 18 10 SSE 20 0 -
10.12.2018 18:00:00 5,1 -0,7 10 5 14 8 S 20 0 0,0
10.12.2018 17:00:00 5,7 -1,7 5 3 14 7 ESE 20 0 0,0
10.12.2018 16:00:00 6,1 -3,0 6 3 11 6 SSE 20 43 0,0
10.12.2018 15:00:00 9,3 -1,0 3 2 10 5 S 20 60 0,0
10.12.2018 14:00:00 9,3 -3,3 6 3 15 8 SSE 20 60 0,0
10.12.2018 13:00:00 8,0 -10,3 8 5 18 10 SSE 20 54 -
10.12.2018 12:00:00 7,5 -11,2 7 4 15 8 S 20 17 0,0
10.12.2018 11:00:00 5,9 -11,7 6 3 18 10 S 20 0 0,0
10.12.2018 10:00:00 3,9 -10,8 6 4 14 7 S 20 0 0,0
10.12.2018 09:00:00 3,7 -12,2 7 4 15 8 SSE 20 0 0,0
10.12.2018 08:00:00 3,4 -13,3 9 5 14 7 SSE 20 0 0,0
10.12.2018 07:00:00 3,6 -12,8 7 4 14 7 SSE 20 0 -
10.12.2018 06:00:00 3,3 -12,8 8 5 11 6 SSE 20 0 0,0
10.12.2018 05:00:00 3,3 -13,9 3 2 11 6 ESE 20 0 0,0
10.12.2018 04:00:00 3,0 -12,8 5 3 10 5 SSW 20 0 0,0
10.12.2018 03:00:00 3,6 -13,3 4 2 13 7 SSW 20 0 0,0
10.12.2018 02:00:00 4,1 -10,8 7 4 14 8 S 20 0 0,0
10.12.2018 01:00:00 3,5 -9,4 7 4 14 7 SSE 20 0 -
10.12.2018 00:00:00 3,9 -12,2 4 2 13 7 SSW 20 0 0,0
09.12.2018 23:00:00 3,4 -10,3 9 5 13 7 SSE 20 0 0,0
09.12.2018 22:00:00 3,5 -11,2 6 3 12 7 SSE 20 0 0,0
09.12.2018 21:00:00 2,6 -10,8 4 2 13 7 S 20 0 0,0
09.12.2018 20:00:00 2,7 -9,4 7 4 13 7 S 20 0 0,0
09.12.2018 19:00:00 3,8 -9,4 3 2 12 6 ESE 20 0 -
09.12.2018 18:00:00 4,5 -7,8 5 3 12 6 ESE 20 0 0,0
09.12.2018 17:00:00 4,9 -5,1 5 3 15 8 NNW 20 0 0,0
09.12.2018 16:00:00 5,8 -3,9 6 3 17 9 NW 20 42 0,0
09.12.2018 15:00:00 7,4 -4,5 5 3 15 8 SW 20 59 0,0
09.12.2018 14:00:00 7,3 1,5 5 3 13 7 WNW 20 60 0,0
09.12.2018 13:00:00 6,9 0,2 4 2 18 10 NNW 20 60 -
09.12.2018 12:00:00 5,2 2,7 4 2 22 12 SW 20 7 0,0
09.12.2018 11:00:00 4,6 2,5 4 2 18 10 SW 20 0 0,0
09.12.2018 10:00:00 4,5 2,3 6 4 23 12 SW 20 0 0,0
09.12.2018 09:00:00 4,8 2,7 7 4 26 14 W 20 0 0,0
09.12.2018 08:00:00 5,2 3,8 8 4 27 15 WSW 20 0 0,0
09.12.2018 07:00:00 5,2 3,4 12 6 31 17 SSW 20 0 -
09.12.2018 06:00:00 5,4 4,3 11 6 27 15 S 20 0 0,0
09.12.2018 05:00:00 5,6 4,3 10 5 26 14 SW 20 0 0,0
09.12.2018 04:00:00 4,7 0,6 14 8 33 18 S 20 0 0,0
09.12.2018 03:00:00 4,2 -6,4 17 9 33 18 SSW 20 0 0,0
09.12.2018 02:00:00 4,7 -7,1 14 8 29 16 S 20 0 0,0
09.12.2018 01:00:00 4,6 -7,1 15 8 24 13 SSW 20 0 -
09.12.2018 00:00:00 5,5 -3,9 15 8 24 13 SSW 20 0 0,0
08.12.2018 23:00:00 6,2 -2,7 10 5 25 14 S 20 0 0,0
08.12.2018 22:00:00 6,4 -0,5 7 4 21 11 W 20 0 0,0
08.12.2018 21:00:00 6,1 -4,5 7 4 22 12 SW 20 0 0,0
08.12.2018 20:00:00 5,8 -2,5 9 5 19 10 S 20 0 0,0
08.12.2018 19:00:00 6,1 -4,8 5 3 16 9 S 20 0 -
08.12.2018 18:00:00 5,8 -10,8 6 4 22 12 E 20 0 0,0
08.12.2018 17:00:00 5,8 -12,8 11 6 22 12 SSE 20 0 0,0
08.12.2018 16:00:00 4,9 -9,9 8 4 14 8 SE 20 43 0,0
08.12.2018 15:00:00 6,5 -5,1 5 3 14 8 N 20 60 0,0
08.12.2018 14:00:00 7,8 -9,0 6 3 18 10 SE 20 60 0,0
08.12.2018 13:00:00 3,7 0,9 9 5 26 14 S 20 60 -
08.12.2018 12:00:00 1,4 1,1 3 2 20 11 NNW 20 19 0,0
08.12.2018 11:00:00 0,6 0,4 13 7 21 12 S 0,7 0 0,0
08.12.2018 10:00:00 0,4 0,3 11 6 22 12 SW - 0 0,0
08.12.2018 09:00:00 -0,6 -0,5 11 6 26 14 S 20 0 0,0
08.12.2018 08:00:00 0,7 0,6 14 7 38 21 NNW 0,2 0 0,0
08.12.2018 07:00:00 1,1 1,1 12 7 41 22 NNW 0,2 0 -
08.12.2018 06:00:00 1,4 1,3 11 6 32 18 WSW 0,1 0 0,0
08.12.2018 05:00:00 1,9 1,7 11 6 39 21 N 0,2 0 0,4
08.12.2018 04:00:00 2,2 2,1 15 8 46 25 N 0,2 0 0,2
08.12.2018 03:00:00 2,3 2,1 20 11 53 29 NNW - 0 0,6
08.12.2018 02:00:00 2,7 2,5 14 8 41 22 NW - 0 0,4
08.12.2018 01:00:00 2,7 2,5 15 8 41 22 NW - 0 -
08.12.2018 00:00:00 2,9 2,7 14 8 39 21 N - 0 0,0
07.12.2018 23:00:00 3,2 3,0 11 6 39 21 N 1,0 0 0,0
07.12.2018 22:00:00 3,5 3,2 15 8 41 22 N 0,5 0 0,0
07.12.2018 21:00:00 3,7 3,4 11 6 46 25 NNW 0,6 0 0,0
07.12.2018 20:00:00 4,2 3,9 11 6 30 16 NW 0,6 0 0,0
07.12.2018 19:00:00 4,2 3,6 10 5 35 19 SSW 1,2 0 -
07.12.2018 18:00:00 4,7 3,6 13 7 35 19 NNW 20 0 0,0
07.12.2018 17:00:00 5,0 2,7 9 5 31 17 ESE 20 0 0,0
07.12.2018 16:00:00 5,7 2,1 11 6 35 19 N 20 43 0,0
07.12.2018 15:00:00 6,5 2,1 10 6 34 19 WNW 20 59 0,0
07.12.2018 14:00:00 6,3 1,3 10 5 36 20 ESE 20 60 0,0
07.12.2018 13:00:00 5,8 0,2 18 10 41 22 S 20 55 -
07.12.2018 12:00:00 4,2 1,5 14 8 34 19 SSW 20 6 0,0
07.12.2018 11:00:00 4,7 -0,7 23 12 40 22 S 20 0 0,0
07.12.2018 10:00:00 3,2 -5,7 16 9 36 20 SSW 20 0 0,0
07.12.2018 09:00:00 5,8 -13,3 18 10 34 18 SSW 20 0 0,0
07.12.2018 08:00:00 5,1 -13,9 17 9 33 18 S 20 0 0,0
07.12.2018 07:00:00 5,5 -13,9 15 8 46 25 S 20 0 -
07.12.2018 06:00:00 6,0 -17,2 18 10 32 17 SSW 20 0 0,0
07.12.2018 05:00:00 5,7 -16,5 18 10 31 17 S 20 0 0,0
07.12.2018 04:00:00 6,7 -16,5 9 5 34 18 SSW 20 0 0,0
07.12.2018 03:00:00 5,9 -15,1 18 10 36 20 SSW 20 0 0,0
07.12.2018 02:00:00 6,1 -13,9 20 11 48 26 SSW 20 0 0,0
07.12.2018 01:00:00 6,6 -15,1 20 11 43 23 SSW 20 0 -
07.12.2018 00:00:00 5,2 -11,7 18 10 32 17 SSW 20 0 0,0
06.12.2018 23:00:00 3,1 -7,8 14 8 31 17 SSW 20 0 0,0
06.12.2018 22:00:00 4,7 -9,0 17 9 35 19 SSW 20 0 0,0
06.12.2018 21:00:00 3,7 -8,2 16 9 24 13 SSW 20 0 0,0
06.12.2018 20:00:00 5,2 -15,1 3 1 19 10 SW 20 0 0,0
06.12.2018 19:00:00 6,0 -11,2 9 5 29 16 SW 20 0 -
06.12.2018 18:00:00 5,7 -9,0 18 10 31 17 SW 20 0 0,0
06.12.2018 17:00:00 5,3 -9,4 5 3 17 9 S 20 0 0,0
06.12.2018 16:00:00 5,9 -5,7 6 3 21 12 SSW 20 43 0,0
06.12.2018 15:00:00 7,6 -2,7 8 5 18 10 S 20 59 0,0
06.12.2018 14:00:00 7,0 1,7 9 5 22 12 SW 20 59 0,0
06.12.2018 13:00:00 5,3 3,2 10 5 21 12 SSW 20 33 -
06.12.2018 12:00:00 4,9 4,6 9 5 31 17 SW 20 20 0,0
06.12.2018 11:00:00 4,2 3,9 9 5 25 14 SSW 0,1 0 0,0
06.12.2018 10:00:00 4,0 3,8 14 8 25 13 SSW 0,1 0 0,0
06.12.2018 09:00:00 3,8 3,6 9 5 21 11 S 0,7 0 0,0
06.12.2018 08:00:00 4,1 3,8 14 8 24 13 S 0,1 0 0,0
06.12.2018 07:00:00 4,9 3,9 13 7 29 16 SSW 7 0 -
06.12.2018 06:00:00 4,2 3,8 14 7 27 15 S 0,1 0 0,0
06.12.2018 05:00:00 5,1 4,3 11 6 28 15 S 11 0 0,0
06.12.2018 04:00:00 5,4 4,6 7 4 25 13 W 20 0 0,0
06.12.2018 03:00:00 5,4 4,5 10 5 33 18 S 20 0 0,0
06.12.2018 02:00:00 5,8 4,3 18 10 29 16 S 20 0 0,0
06.12.2018 01:00:00 4,8 3,9 6 3 26 14 SE 6 0 -
06.12.2018 00:00:00 4,7 3,4 10 5 27 14 S 15 0 0,0

tt = temperature
td = dewpoint
ff = wind speed
fx = gusts
dd = wind direction
vv = visibility
sd = sunshine duration
rr = precipitation

Next stations